Time;durP1;ratioP1;P1;durP2;ratioP2;P2;SDS_P1;SDS_P2;PMS_P1;PMS_P2;Temp;Humidity;BMP_temperature;BMP_pressure;BME280_temperature;BME280_humidity;BME280_pressure;Samples;Min_cycle;Max_cycle;Signal;HPM_P1;HPM_P2
2022/01/10 00:00:09;;;;;;;13.67;13.17;;;16.50;85.00;;;;;;5053277;28;20436;-51
2022/01/10 00:02:36;;;;;;;13.20;12.77;;;16.50;85.30;;;;;;5053244;28;21113;-45
2022/01/10 00:05:03;;;;;;;13.00;12.23;;;16.50;85.40;;;;;;5052747;28;20483;-45
2022/01/10 00:07:29;;;;;;;12.53;12.13;;;16.50;85.50;;;;;;5053127;28;20468;-49
2022/01/10 00:09:56;;;;;;;13.23;12.83;;;16.50;85.50;;;;;;5053103;28;20455;-49
2022/01/10 00:12:23;;;;;;;12.37;12.00;;;16.40;85.60;;;;;;5052880;28;20793;-45
2022/01/10 00:14:49;;;;;;;13.80;13.20;;;16.40;86.20;;;;;;5052875;28;20440;-44
2022/01/10 00:17:17;;;;;;;12.87;12.47;;;16.30;86.60;;;;;;5052533;28;20468;-49
2022/01/10 00:19:44;;;;;;;13.17;12.70;;;16.30;87.20;;;;;;5053051;28;20448;-47
2022/01/10 00:22:11;;;;;;;13.27;12.70;;;16.30;87.20;;;;;;5052538;28;20440;-50
2022/01/10 00:24:38;;;;;;;12.80;12.40;;;16.30;87.30;;;;;;5054768;28;20488;-50
2022/01/10 00:27:05;;;;;;;12.60;12.20;;;16.30;87.60;;;;;;5054662;28;20859;-49
2022/01/10 00:29:32;;;;;;;13.20;12.70;;;16.30;87.80;;;;;;5054441;28;20807;-49
2022/01/10 00:31:59;;;;;;;14.00;13.50;;;16.20;88.00;;;;;;5052600;28;20448;-45
2022/01/10 00:34:28;;;;;;;12.90;12.50;;;16.20;88.40;;;;;;5052473;28;20441;-44
2022/01/10 00:36:54;;;;;;;13.20;12.70;;;16.20;89.30;;;;;;5052288;28;20467;-45
2022/01/10 00:39:21;;;;;;;13.33;12.93;;;16.20;88.70;;;;;;5054433;28;20456;-47
2022/01/10 00:41:48;;;;;;;13.07;12.57;;;16.20;88.80;;;;;;5035855;28;20441;-48
2022/01/10 00:44:15;;;;;;;12.80;12.40;;;16.20;89.20;;;;;;5035847;28;20485;-48
2022/01/10 00:46:42;;;;;;;12.53;12.13;;;16.20;89.60;;;;;;5034248;28;21012;-47
2022/01/10 00:49:09;;;;;;;13.23;12.73;;;16.10;89.80;;;;;;5032423;28;20429;-47
2022/01/10 00:51:37;;;;;;;13.30;12.60;;;16.10;90.10;;;;;;5038007;28;20448;-47
2022/01/10 00:54:03;;;;;;;13.27;12.87;;;16.10;90.30;;;;;;5052575;28;20806;-47
2022/01/10 00:56:30;;;;;;;13.27;12.77;;;16.10;90.50;;;;;;5054768;28;20464;-51
2022/01/10 00:58:57;;;;;;;12.80;12.40;;;16.10;90.40;;;;;;5055180;28;20444;-49
2022/01/10 01:01:23;;;;;;;14.13;13.53;;;16.10;90.70;;;;;;5055429;28;20821;-49
2022/01/10 01:03:50;;;;;;;14.07;13.47;;;16.10;90.70;;;;;;5052494;28;20482;-45
2022/01/10 01:06:17;;;;;;;13.00;12.60;;;16.00;90.70;;;;;;5051802;28;20467;-44
2022/01/10 01:08:46;;;;;;;13.10;12.70;;;16.00;90.80;;;;;;5051884;28;20514;-47
2022/01/10 01:13:56;;;;;;;13.77;13.27;;;16.00;91.00;;;;;;5032885;28;20518;-48
2022/01/10 01:16:43;;;;;;;13.50;13.00;;;15.90;91.20;;;;;;5034291;28;20528;-49
2022/01/10 01:20:02;;;;;;;12.93;12.53;;;16.00;91.40;;;;;;5033755;28;20441;-46
2022/01/10 01:25:03;;;;;;;14.07;13.50;;;15.90;91.70;;;;;;5052939;28;20479;-49
2022/01/10 01:27:30;;;;;;;13.53;13.13;;;15.90;91.90;;;;;;5053172;28;20493;-48
2022/01/10 01:29:57;;;;;;;13.90;13.40;;;15.90;92.10;;;;;;5053411;28;20454;-50
2022/01/10 01:32:24;;;;;;;14.10;13.47;;;15.90;92.20;;;;;;5052408;28;20451;-45
2022/01/10 01:34:55;;;;;;;13.70;13.20;;;15.90;92.40;;;;;;5051212;28;20444;-46
2022/01/10 01:37:21;;;;;;;13.30;12.80;;;15.80;92.60;;;;;;5052387;28;20522;-49
2022/01/10 01:39:48;;;;;;;13.10;12.60;;;15.80;92.50;;;;;;5052646;28;20455;-51
2022/01/10 01:42:32;;;;;;;12.83;12.23;;;15.80;92.50;;;;;;5052463;28;20922;-49
2022/01/10 01:44:59;;;;;;;14.07;13.10;;;15.80;92.80;;;;;;5052669;28;20487;-46
2022/01/10 01:47:26;;;;;;;13.63;13.10;;;15.80;92.80;;;;;;5090141;22;20495;-52
2022/01/10 01:49:53;;;;;;;12.70;12.40;;;15.80;93.10;;;;;;5042818;28;20428;-52
2022/01/10 01:52:20;;;;;;;13.57;13.07;;;15.70;93.30;;;;;;5051229;28;20443;-51
2022/01/10 01:54:46;;;;;;;13.20;12.80;;;15.70;93.60;;;;;;5051362;28;20443;-49
2022/01/10 01:57:13;;;;;;;13.57;13.07;;;15.70;93.40;;;;;;5049635;28;20464;-48
2022/01/10 01:59:41;;;;;;;14.03;13.43;;;15.70;93.60;;;;;;5031411;28;20957;-50
2022/01/10 02:02:08;;;;;;;13.00;12.60;;;15.70;93.90;;;;;;5031206;28;20444;-50
2022/01/10 02:04:35;;;;;;;13.10;12.53;;;15.70;93.80;;;;;;5031436;28;20869;-50
2022/01/10 02:07:02;;;;;;;13.10;12.50;;;15.70;93.80;;;;;;5018320;28;20493;-49
2022/01/10 02:09:28;;;;;;;13.00;12.50;;;15.70;94.10;;;;;;5011570;28;20530;-49
2022/01/10 02:11:55;;;;;;;12.60;12.20;;;15.70;94.10;;;;;;5012564;28;20476;-48
2022/01/10 02:14:23;;;;;;;13.00;12.60;;;15.70;94.10;;;;;;5011529;28;20898;-48
2022/01/10 02:16:55;;;;;;;13.63;13.23;;;15.70;94.00;;;;;;5011428;28;20501;-49
2022/01/10 02:19:22;;;;;;;13.17;12.77;;;15.70;94.10;;;;;;5011489;28;20450;-49
2022/01/10 02:21:50;;;;;;;13.43;12.93;;;15.60;94.50;;;;;;5011364;28;20450;-52
2022/01/10 02:24:18;;;;;;;13.40;12.90;;;15.60;94.70;;;;;;5029155;28;20539;-51
2022/01/10 02:26:48;;;;;;;13.00;12.53;;;15.60;95.00;;;;;;5031246;28;20808;-49
2022/01/10 02:29:15;;;;;;;13.00;12.60;;;15.60;95.00;;;;;;5031199;28;20532;-47
2022/01/10 02:31:41;;;;;;;13.30;12.80;;;15.60;95.00;;;;;;5031082;28;20460;-48
2022/01/10 02:34:09;;;;;;;13.57;13.03;;;15.60;95.10;;;;;;5031536;28;20497;-53
2022/01/10 02:36:36;;;;;;;13.27;12.80;;;15.50;95.20;;;;;;5015076;28;20477;-48
2022/01/10 02:39:08;;;;;;;12.03;11.73;;;15.50;95.20;;;;;;5015170;28;20446;-51
2022/01/10 02:41:37;;;;;;;12.70;12.27;;;15.50;95.40;;;;;;5014796;28;20922;-49
2022/01/10 02:44:10;;;;;;;13.30;12.80;;;15.60;95.20;;;;;;5014905;28;20493;-50
2022/01/10 02:46:38;;;;;;;12.90;12.50;;;15.50;95.30;;;;;;5020519;28;20472;-51
2022/01/10 02:49:10;;;;;;;13.63;13.03;;;15.50;95.30;;;;;;5034679;28;20461;-48
2022/01/10 02:51:36;;;;;;;13.53;13.03;;;15.50;95.50;;;;;;5034480;28;20476;-54
2022/01/10 02:54:05;;;;;;;13.27;12.67;;;15.50;95.40;;;;;;5034557;28;20445;-54
2022/01/10 02:56:31;;;;;;;13.77;13.37;;;15.60;95.90;;;;;;5034424;28;20464;-49
2022/01/10 02:58:58;;;;;;;13.57;13.07;;;15.50;95.60;;;;;;5026588;28;20450;-50
2022/01/10 03:01:25;;;;;;;12.57;12.17;;;15.50;95.50;;;;;;5014660;28;20445;-49
2022/01/10 03:03:52;;;;;;;13.10;12.70;;;15.50;95.60;;;;;;5014317;28;20445;-49
2022/01/10 03:06:18;;;;;;;13.83;13.33;;;15.50;95.80;;;;;;5014538;28;20454;-51
2022/01/10 03:08:45;;;;;;;13.50;13.10;;;15.50;95.70;;;;;;5014625;28;20493;-49
2022/01/10 03:11:14;;;;;;;13.77;13.30;;;15.50;95.90;;;;;;5025885;28;20449;-49
2022/01/10 03:13:40;;;;;;;13.63;13.23;;;15.50;95.90;;;;;;5034079;28;20468;-48
2022/01/10 03:16:09;;;;;;;13.47;13.00;;;15.50;96.00;;;;;;5033830;28;20453;-49
2022/01/10 03:18:35;;;;;;;13.10;12.60;;;15.50;96.20;;;;;;5033969;28;20476;-51
2022/01/10 03:21:02;;;;;;;14.17;13.67;;;15.50;96.30;;;;;;5034131;28;20445;-50
2022/01/10 03:23:29;;;;;;;13.30;12.80;;;15.50;96.20;;;;;;5021829;28;20457;-48
2022/01/10 03:25:55;;;;;;;13.10;12.70;;;15.50;96.20;;;;;;5014052;28;20508;-48
2022/01/10 03:28:23;;;;;;;13.80;13.30;;;15.40;96.40;;;;;;5014147;28;20466;-48
2022/01/10 03:30:50;;;;;;;12.83;12.47;;;15.40;96.50;;;;;;5014153;28;20457;-49
2022/01/10 03:33:17;;;;;;;13.67;13.17;;;15.40;96.50;;;;;;5013748;28;20446;-48
2022/01/10 03:35:43;;;;;;;13.10;12.60;;;15.50;96.50;;;;;;5028824;28;20758;-48
2022/01/10 03:38:10;;;;;;;13.70;13.30;;;15.40;96.50;;;;;;5033674;28;20841;-49
2022/01/10 03:40:37;;;;;;;13.20;12.80;;;15.40;96.60;;;;;;5033676;28;20441;-48
2022/01/10 03:43:04;;;;;;;13.37;12.97;;;15.40;96.60;;;;;;5033029;28;20449;-48
2022/01/10 03:45:33;;;;;;;13.53;13.03;;;15.40;96.60;;;;;;5033540;28;21005;-48
2022/01/10 03:47:59;;;;;;;13.70;13.23;;;15.50;96.50;;;;;;5018294;28;20515;-51
2022/01/10 03:50:27;;;;;;;13.87;13.47;;;15.50;96.50;;;;;;5013744;28;20783;-50
2022/01/10 03:52:53;;;;;;;13.60;13.20;;;15.40;96.60;;;;;;5013415;28;20457;-47
2022/01/10 03:55:20;;;;;;;13.00;12.60;;;15.40;96.60;;;;;;5013741;28;20445;-50
2022/01/10 03:57:47;;;;;;;14.20;13.60;;;15.40;96.70;;;;;;5013594;28;20474;-48
2022/01/10 04:00:14;;;;;;;14.03;13.50;;;15.40;96.70;;;;;;5031534;28;20829;-51
2022/01/10 04:02:46;;;;;;;14.50;14.00;;;15.40;96.70;;;;;;5033026;28;20541;-50
2022/01/10 04:05:13;;;;;;;13.87;13.40;;;15.40;97.00;;;;;;5033095;28;20539;-51
2022/01/10 04:07:40;;;;;;;13.73;13.33;;;15.40;96.60;;;;;;5033300;28;20461;-46
2022/01/10 04:10:07;;;;;;;13.60;13.10;;;15.40;96.60;;;;;;5031164;28;20453;-47
2022/01/10 04:12:34;;;;;;;13.80;13.20;;;15.40;96.80;;;;;;5013171;28;20954;-48
2022/01/10 04:15:01;;;;;;;14.03;13.27;;;15.40;96.70;;;;;;5013341;28;20809;-49
2022/01/10 04:17:27;;;;;;;13.07;12.67;;;15.40;96.80;;;;;;5013159;28;20528;-47
2022/01/10 04:19:55;;;;;;;13.63;13.23;;;15.40;97.00;;;;;;5013134;28;20856;-49
2022/01/10 04:22:22;;;;;;;13.47;12.90;;;15.40;97.00;;;;;;5017544;28;20452;-47
2022/01/10 04:24:49;;;;;;;13.00;12.60;;;15.40;97.10;;;;;;5032774;28;21013;-50
2022/01/10 04:27:16;;;;;;;14.20;13.70;;;15.40;97.10;;;;;;5032775;28;20457;-51
2022/01/10 04:29:42;;;;;;;14.20;13.67;;;15.40;97.20;;;;;;5032772;28;20449;-47
2022/01/10 04:32:11;;;;;;;14.03;13.53;;;15.40;97.20;;;;;;5032396;28;21065;-50
2022/01/10 04:34:38;;;;;;;13.93;13.03;;;15.40;97.10;;;;;;5030910;28;20452;-47
2022/01/10 04:37:07;;;;;;;13.93;13.50;;;15.40;97.30;;;;;;5032515;28;20472;-49
2022/01/10 04:39:33;;;;;;;14.30;13.80;;;15.40;97.60;;;;;;5032536;28;20451;-48
2022/01/10 04:42:00;;;;;;;14.57;13.87;;;15.40;97.80;;;;;;5032318;28;20472;-54
2022/01/10 04:44:27;;;;;;;14.20;13.70;;;15.40;98.00;;;;;;5032490;28;20441;-49
2022/01/10 04:46:53;;;;;;;14.17;13.77;;;15.40;98.20;;;;;;5020618;28;20478;-50
2022/01/10 04:49:24;;;;;;;14.70;14.20;;;15.40;98.20;;;;;;5012705;28;20453;-47
2022/01/10 04:51:51;;;;;;;14.40;13.80;;;15.40;98.40;;;;;;5012408;28;20446;-48
2022/01/10 04:54:19;;;;;;;13.70;13.30;;;15.40;98.40;;;;;;5012047;28;20521;-49
2022/01/10 04:56:47;;;;;;;14.30;13.80;;;15.40;98.50;;;;;;5012212;28;20469;-49
2022/01/10 04:59:14;;;;;;;14.47;14.07;;;15.40;98.60;;;;;;5025761;28;20448;-48
2022/01/10 05:01:41;;;;;;;14.20;13.70;;;15.40;98.60;;;;;;5031947;28;20961;-48
2022/01/10 05:04:09;;;;;;;14.63;13.90;;;15.40;98.50;;;;;;5032079;28;20789;-50
2022/01/10 05:06:36;;;;;;;15.30;14.60;;;15.40;98.70;;;;;;5031907;28;20520;-51
2022/01/10 05:09:03;;;;;;;15.13;14.53;;;15.40;98.60;;;;;;5032033;28;20453;-48
2022/01/10 05:11:32;;;;;;;13.80;13.40;;;15.40;98.70;;;;;;5017783;28;20817;-48
2022/01/10 05:13:59;;;;;;;15.47;14.83;;;15.40;98.80;;;;;;5012078;28;20483;-49
2022/01/10 05:16:26;;;;;;;18.00;16.30;;;15.40;99.90;;;;;;5012172;28;20446;-49
2022/01/10 05:18:52;;;;;;;19.10;17.10;;;15.40;99.90;;;;;;5012154;28;20450;-49
2022/01/10 05:21:20;;;;;;;19.40;17.50;;;15.60;99.90;;;;;;5012066;28;20508;-53
2022/01/10 05:23:47;;;;;;;24.17;16.23;;;15.70;99.90;;;;;;5030175;28;20453;-48
2022/01/10 05:26:14;;;;;;;18.73;14.03;;;15.80;99.90;;;;;;5031575;28;20989;-48
2022/01/10 05:28:42;;;;;;;22.33;13.87;;;16.00;99.90;;;;;;5031694;28;20453;-47
2022/01/10 05:31:08;;;;;;;21.90;13.87;;;16.10;99.90;;;;;;5031725;28;20445;-48
2022/01/10 05:33:35;;;;;;;29.23;11.23;;;16.20;99.90;;;;;;5031490;28;20449;-48
2022/01/10 05:36:02;;;;;;;32.73;12.33;;;16.30;99.90;;;;;;5014311;28;20453;-48
2022/01/10 05:38:28;;;;;;;31.03;12.00;;;16.40;99.90;;;;;;5011984;28;20477;-49
2022/01/10 05:40:55;;;;;;;23.57;11.00;;;16.40;99.90;;;;;;5011880;28;20954;-49
2022/01/10 05:43:22;;;;;;;15.03;8.40;;;16.40;99.90;;;;;;5012013;28;20913;-48
2022/01/10 05:45:50;;;;;;;26.57;8.70;;;16.40;99.90;;;;;;5011631;28;20489;-48
2022/01/10 05:48:22;;;;;;;15.90;8.30;;;16.20;99.90;;;;;;5011176;28;20620;-54
2022/01/10 05:50:49;;;;;;;9.30;7.00;;;16.30;99.90;;;;;;5011844;28;20548;-47
2022/01/10 05:53:16;;;;;;;11.17;8.97;;;16.70;99.90;;;;;;5011606;28;20441;-50
2022/01/10 05:55:43;;;;;;;12.20;10.20;;;17.10;99.90;;;;;;5010213;28;20450;-53
2022/01/10 05:58:10;;;;;;;13.90;9.90;;;17.30;99.90;;;;;;5011530;28;20469;-52
2022/01/10 06:00:38;;;;;;;18.83;11.13;;;17.50;99.90;;;;;;5011722;28;20446;-50
2022/01/10 06:03:06;;;;;;;17.43;11.90;;;17.60;99.90;;;;;;5011468;28;20457;-49
2022/01/10 06:05:33;;;;;;;12.10;11.03;;;17.80;99.90;;;;;;5011798;28;20835;-49
2022/01/10 06:08:02;;;;;;;13.80;12.17;;;17.90;99.90;;;;;;5015399;28;20466;-52
2022/01/10 06:10:29;;;;;;;14.43;11.77;;;18.10;99.90;;;;;;5015642;28;20464;-51
2022/01/10 06:12:58;;;;;;;14.67;13.57;;;18.10;99.90;;;;;;5015239;28;21015;-53
2022/01/10 06:15:25;;;;;;;13.77;12.63;;;18.10;99.90;;;;;;5015456;28;20437;-49
2022/01/10 06:17:52;;;;;;;13.63;12.63;;;18.20;99.90;;;;;;5015378;28;20465;-51
2022/01/10 06:20:20;;;;;;;15.60;13.47;;;18.20;99.90;;;;;;5015329;28;20481;-50
2022/01/10 06:22:47;;;;;;;14.73;13.47;;;18.20;99.90;;;;;;5015206;28;20817;-54
2022/01/10 06:25:17;;;;;;;14.93;13.87;;;18.30;99.90;;;;;;5015113;28;20487;-57
2022/01/10 06:27:43;;;;;;;15.63;14.53;;;18.30;99.90;;;;;;5015173;28;20465;-49
2022/01/10 06:30:11;;;;;;;16.83;14.80;;;18.30;99.90;;;;;;5015002;28;20446;-52
2022/01/10 06:32:38;;;;;;;15.77;14.70;;;18.30;99.90;;;;;;5014936;28;20870;-50
2022/01/10 06:35:06;;;;;;;17.87;15.67;;;18.30;99.90;;;;;;5015062;28;20812;-53
2022/01/10 06:37:34;;;;;;;15.60;14.47;;;18.30;99.90;;;;;;5014924;28;20469;-50
2022/01/10 06:40:00;;;;;;;15.47;14.23;;;18.30;99.90;;;;;;5015152;28;20446;-52
2022/01/10 06:42:27;;;;;;;16.27;15.13;;;18.30;99.90;;;;;;5014849;28;20804;-50
2022/01/10 06:44:54;;;;;;;16.43;15.37;;;18.30;99.90;;;;;;5014871;28;20446;-50
2022/01/10 06:47:20;;;;;;;15.43;14.60;;;18.30;99.90;;;;;;5014696;28;20482;-50
2022/01/10 06:49:47;;;;;;;17.00;15.67;;;18.30;99.90;;;;;;5014884;28;20854;-52
2022/01/10 06:52:14;;;;;;;15.93;14.80;;;18.30;99.90;;;;;;5014517;28;20437;-50
2022/01/10 06:54:42;;;;;;;16.30;15.20;;;18.30;99.90;;;;;;5014784;28;20446;-52
2022/01/10 06:57:09;;;;;;;16.53;15.37;;;18.30;99.90;;;;;;5014551;28;20464;-52
2022/01/10 06:59:36;;;;;;;16.73;15.47;;;18.30;99.90;;;;;;5014770;28;20442;-51
2022/01/10 07:02:03;;;;;;;15.83;14.93;;;18.30;99.90;;;;;;5014471;28;20450;-53
2022/01/10 07:04:29;;;;;;;16.13;15.20;;;18.20;99.90;;;;;;5014493;28;20441;-50
2022/01/10 07:06:57;;;;;;;16.50;15.27;;;18.20;99.90;;;;;;5014286;28;20508;-49
2022/01/10 07:09:24;;;;;;;16.60;15.40;;;18.20;99.90;;;;;;5014506;28;20846;-53
2022/01/10 07:11:52;;;;;;;15.57;14.80;;;18.20;99.90;;;;;;5014205;28;20453;-50
2022/01/10 07:14:18;;;;;;;14.07;13.27;;;18.10;99.90;;;;;;5014355;28;20446;-50
2022/01/10 07:16:48;;;;;;;14.00;13.17;;;18.10;99.90;;;;;;5014353;28;20458;-51
2022/01/10 07:19:15;;;;;;;13.80;12.87;;;18.00;99.90;;;;;;5013478;28;20449;-53
2022/01/10 07:21:43;;;;;;;13.73;12.80;;;18.00;99.90;;;;;;5014082;28;20508;-50
2022/01/10 07:24:10;;;;;;;12.77;12.07;;;18.00;99.90;;;;;;5014175;28;21070;-51
2022/01/10 07:26:37;;;;;;;13.73;12.83;;;17.90;99.90;;;;;;5014050;28;20547;-50
2022/01/10 07:29:07;;;;;;;13.77;12.87;;;17.90;99.90;;;;;;5014195;28;20454;-50
2022/01/10 07:31:33;;;;;;;13.20;12.60;;;17.90;99.90;;;;;;5013863;28;20477;-54
2022/01/10 07:34:00;;;;;;;13.40;12.80;;;17.80;99.90;;;;;;5013987;28;20446;-56
2022/01/10 07:36:27;;;;;;;13.00;12.37;;;17.80;99.90;;;;;;5013797;28;20446;-50
2022/01/10 07:38:54;;;;;;;12.87;12.20;;;17.70;99.90;;;;;;5013762;28;20496;-49
2022/01/10 07:41:20;;;;;;;13.17;12.57;;;17.70;99.90;;;;;;5013630;28;20453;-51
2022/01/10 07:43:47;;;;;;;12.97;12.10;;;17.70;99.90;;;;;;5013480;28;20458;-50
2022/01/10 07:46:15;;;;;;;12.80;12.13;;;17.60;99.90;;;;;;5013369;28;20856;-51
2022/01/10 07:48:44;;;;;;;14.00;13.03;;;17.60;99.90;;;;;;5016248;28;20716;-56
2022/01/10 07:51:12;;;;;;;13.77;12.93;;;17.50;99.90;;;;;;5015208;28;20450;-52
2022/01/10 07:53:40;;;;;;;13.33;12.63;;;17.50;99.90;;;;;;5015549;28;20450;-52
2022/01/10 07:56:07;;;;;;;12.30;11.80;;;17.40;99.90;;;;;;5015657;28;20438;-53
2022/01/10 07:58:34;;;;;;;12.60;11.90;;;17.40;99.90;;;;;;5015219;28;20453;-58
2022/01/10 08:01:01;;;;;;;13.03;12.33;;;17.40;99.90;;;;;;5015332;28;20796;-51
2022/01/10 08:03:29;;;;;;;13.23;12.43;;;17.40;99.90;;;;;;5015174;28;20457;-56
2022/01/10 08:05:56;;;;;;;13.20;12.70;;;17.40;99.90;;;;;;5015007;28;21022;-52
2022/01/10 08:08:23;;;;;;;13.10;12.40;;;17.30;99.90;;;;;;5014906;28;20470;-54
2022/01/10 08:10:50;;;;;;;12.83;12.27;;;17.30;99.90;;;;;;5014866;28;20458;-57
2022/01/10 08:13:17;;;;;;;12.53;12.03;;;17.30;99.90;;;;;;5014221;28;20446;-58
2022/01/10 08:15:43;;;;;;;12.90;12.20;;;17.20;99.90;;;;;;5014229;28;20446;-56
2022/01/10 08:18:10;;;;;;;13.63;12.60;;;17.20;99.90;;;;;;5014950;28;20520;-52
2022/01/10 08:20:38;;;;;;;12.93;12.43;;;17.20;99.90;;;;;;5015132;28;20797;-53
2022/01/10 08:23:05;;;;;;;13.00;12.20;;;17.10;99.90;;;;;;5015269;28;20508;-51
2022/01/10 08:25:32;;;;;;;12.90;12.40;;;17.10;99.90;;;;;;5015265;28;20450;-52
2022/01/10 08:27:59;;;;;;;14.73;14.13;;;17.00;99.90;;;;;;5014071;28;20499;-55
2022/01/10 08:30:26;;;;;;;14.33;13.63;;;17.00;99.90;;;;;;5014035;28;20445;-57
2022/01/10 08:32:52;;;;;;;12.30;11.80;;;17.00;99.90;;;;;;5015147;28;20525;-54
2022/01/10 08:35:19;;;;;;;12.53;12.13;;;17.00;99.90;;;;;;5015142;28;20446;-51
2022/01/10 08:37:48;;;;;;;11.67;11.27;;;17.00;99.90;;;;;;5014355;28;20465;-54
2022/01/10 08:40:15;;;;;;;13.20;12.70;;;16.90;99.90;;;;;;5015090;28;20533;-53
2022/01/10 08:42:42;;;;;;;12.93;12.20;;;16.90;99.90;;;;;;5014088;28;20469;-58
2022/01/10 08:45:10;;;;;;;13.10;12.50;;;17.00;99.90;;;;;;5013997;28;20815;-57
2022/01/10 08:47:37;;;;;;;12.53;12.03;;;17.10;99.90;;;;;;5014178;28;20494;-52
2022/01/10 08:50:06;;;;;;;13.10;12.60;;;17.20;99.90;;;;;;5014733;28;20454;-54
2022/01/10 08:52:33;;;;;;;13.37;12.83;;;17.30;99.90;;;;;;5014781;28;20955;-55
2022/01/10 08:55:01;;;;;;;13.40;12.90;;;17.40;99.90;;;;;;5014569;28;20457;-57
2022/01/10 08:57:28;;;;;;;12.70;12.20;;;17.50;99.60;;;;;;5013574;28;20458;-55
2022/01/10 08:59:55;;;;;;;13.30;12.80;;;17.50;99.20;;;;;;5013104;28;20454;-58
2022/01/10 09:02:21;;;;;;;12.90;12.37;;;17.50;98.80;;;;;;5013837;28;20508;-52
2022/01/10 09:04:48;;;;;;;13.57;13.00;;;17.50;98.50;;;;;;5014833;28;20508;-52
2022/01/10 09:07:15;;;;;;;13.40;12.77;;;17.60;98.30;;;;;;5014565;28;20970;-56
2022/01/10 09:09:42;;;;;;;12.30;11.90;;;17.60;97.90;;;;;;5014298;28;20457;-56
2022/01/10 09:12:11;;;;;;;13.57;13.07;;;17.60;97.70;;;;;;5013067;28;20445;-58
2022/01/10 09:14:38;;;;;;;12.47;11.87;;;17.60;97.50;;;;;;5012897;28;20446;-58
2022/01/10 09:17:05;;;;;;;10.83;10.40;;;17.60;97.20;;;;;;5014051;28;20896;-56
2022/01/10 09:19:32;;;;;;;11.87;11.40;;;17.60;97.00;;;;;;5014859;28;20446;-56
2022/01/10 09:21:58;;;;;;;11.67;11.20;;;17.60;96.70;;;;;;5013865;28;20449;-57
2022/01/10 09:24:25;;;;;;;12.37;11.67;;;17.60;96.60;;;;;;5014052;28;20442;-51
2022/01/10 09:26:52;;;;;;;12.30;11.83;;;17.60;96.40;;;;;;5014155;28;20497;-54
2022/01/10 09:29:20;;;;;;;13.43;12.83;;;17.60;96.20;;;;;;5014852;28;20452;-51
2022/01/10 09:31:47;;;;;;;12.90;12.37;;;17.60;96.00;;;;;;5014744;28;20457;-51
2022/01/10 09:34:14;;;;;;;12.93;12.40;;;17.50;95.80;;;;;;5014979;28;20446;-54
2022/01/10 09:36:41;;;;;;;12.23;11.83;;;17.50;95.60;;;;;;5014079;28;20488;-57
2022/01/10 09:39:09;;;;;;;11.27;10.97;;;17.50;95.50;;;;;;5013723;28;20457;-57
2022/01/10 09:41:36;;;;;;;12.13;11.00;;;17.50;95.70;;;;;;5014065;28;20816;-53
2022/01/10 09:44:06;;;;;;;13.70;13.20;;;17.50;95.20;;;;;;5015261;28;20461;-54
2022/01/10 09:46:35;;;;;;;12.80;12.30;;;17.50;95.00;;;;;;5014701;28;20528;-55
2022/01/10 09:49:03;;;;;;;14.50;13.90;;;17.50;94.90;;;;;;5015509;28;20852;-57
2022/01/10 09:51:32;;;;;;;13.30;12.90;;;17.40;94.70;;;;;;5014549;28;20792;-55
2022/01/10 09:54:01;;;;;;;13.10;12.60;;;17.50;94.70;;;;;;5013710;28;20943;-58
2022/01/10 09:56:29;;;;;;;12.90;12.50;;;17.50;94.60;;;;;;5014198;28;20821;-54
2022/01/10 09:58:57;;;;;;;12.90;12.50;;;17.40;94.40;;;;;;5015251;28;20453;-50
2022/01/10 10:01:25;;;;;;;13.10;12.70;;;17.40;94.40;;;;;;5015399;28;20479;-58
2022/01/10 10:03:58;;;;;;;12.70;12.20;;;17.40;94.40;;;;;;5014761;28;20445;-53
2022/01/10 10:06:26;;;;;;;13.23;12.70;;;17.30;94.40;;;;;;5013775;28;20481;-56
2022/01/10 10:08:53;;;;;;;12.70;12.20;;;17.30;94.40;;;;;;5013112;28;20442;-55
2022/01/10 10:11:20;;;;;;;13.40;13.00;;;17.30;94.40;;;;;;5013694;28;20453;-53
2022/01/10 10:13:52;;;;;;;13.43;12.90;;;17.20;94.20;;;;;;5015198;28;20450;-53
2022/01/10 10:16:19;;;;;;;12.97;12.53;;;17.30;94.20;;;;;;5015047;28;20443;-53
2022/01/10 10:18:47;;;;;;;14.07;13.53;;;17.20;94.00;;;;;;5014257;28;20822;-58
2022/01/10 10:21:17;;;;;;;13.40;13.00;;;17.20;93.90;;;;;;5013493;28;20460;-58
2022/01/10 10:23:46;;;;;;;13.43;13.00;;;17.20;93.90;;;;;;5012108;28;20454;-58
2022/01/10 10:26:17;;;;;;;13.70;13.03;;;17.20;93.70;;;;;;5012719;28;20477;-52
2022/01/10 10:28:46;;;;;;;12.80;12.40;;;17.20;93.70;;;;;;5014766;28;20446;-52
2022/01/10 10:31:13;;;;;;;13.13;12.50;;;17.30;93.60;;;;;;5014949;28;20494;-58
2022/01/10 10:33:48;;;;;;;12.93;12.53;;;17.50;93.40;;;;;;5013871;28;20449;-57
2022/01/10 10:36:17;;;;;;;12.23;11.93;;;17.60;92.90;;;;;;5013993;28;20787;-54
2022/01/10 10:38:44;;;;;;;12.60;12.20;;;17.70;92.30;;;;;;5015400;28;20449;-55
2022/01/10 10:41:11;;;;;;;12.60;12.17;;;17.90;91.80;;;;;;5015173;28;20997;-50
2022/01/10 10:43:40;;;;;;;12.37;11.83;;;18.00;91.20;;;;;;5015178;28;20457;-52
2022/01/10 10:46:11;;;;;;;13.20;12.70;;;18.00;90.70;;;;;;5014893;28;20450;-54
2022/01/10 10:48:39;;;;;;;13.20;12.70;;;18.10;90.20;;;;;;5013725;28;20472;-52
2022/01/10 10:51:07;;;;;;;12.77;12.37;;;18.20;89.40;;;;;;5013138;28;20453;-49
2022/01/10 10:53:36;;;;;;;12.80;12.40;;;18.30;88.50;;;;;;5016629;28;20453;-52
2022/01/10 10:56:04;;;;;;;12.60;12.10;;;18.30;88.20;;;;;;5020327;28;20456;-58
2022/01/10 10:58:32;;;;;;;13.97;13.37;;;18.40;88.70;;;;;;5018840;28;20854;-53
2022/01/10 11:01:00;;;;;;;13.30;12.87;;;18.40;88.90;;;;;;5018815;28;20816;-55
2022/01/10 11:03:27;;;;;;;13.03;12.63;;;18.50;89.50;;;;;;5018744;28;20442;-57
2022/01/10 11:05:57;;;;;;;12.50;12.00;;;18.60;90.40;;;;;;5017345;28;20438;-54
2022/01/10 11:08:26;;;;;;;13.97;13.37;;;18.60;90.90;;;;;;5019358;28;20521;-51
2022/01/10 11:10:55;;;;;;;13.37;12.87;;;18.70;91.50;;;;;;5019524;28;20452;-54
2022/01/10 11:13:24;;;;;;;13.13;12.73;;;18.80;92.10;;;;;;5018261;28;20515;-52
2022/01/10 11:15:52;;;;;;;13.90;13.40;;;18.80;91.90;;;;;;5018379;28;20494;-55
2022/01/10 11:18:21;;;;;;;11.70;11.30;;;19.00;91.80;;;;;;5015624;28;20956;-51
2022/01/10 11:20:49;;;;;;;14.07;13.47;;;19.10;91.60;;;;;;5016845;28;20199;-52
2022/01/10 11:23:16;;;;;;;14.27;13.77;;;19.30;91.00;;;;;;5017896;28;21009;-52
2022/01/10 11:25:43;;;;;;;13.43;13.03;;;19.50;90.40;;;;;;5018560;28;20529;-53
2022/01/10 11:28:13;;;;;;;13.80;13.30;;;19.60;89.40;;;;;;5024197;28;20500;-52
2022/01/10 11:30:42;;;;;;;13.20;12.80;;;19.80;87.80;;;;;;5037731;28;20441;-55
2022/01/10 11:33:10;;;;;;;13.27;12.63;;;20.10;86.00;;;;;;5036266;28;20449;-54
2022/01/10 11:35:39;;;;;;;13.87;13.37;;;20.40;83.60;;;;;;5035766;28;20484;-52
2022/01/10 11:38:23;;;;;;;13.47;13.07;;;21.00;80.80;;;;;;5032676;28;20461;-51
2022/01/10 11:40:52;;;;;;;14.43;13.83;;;21.90;74.30;;;;;;5018033;28;20553;-52
2022/01/10 11:43:42;;;;;;;14.00;13.50;;;22.50;67.10;;;;;;5018277;28;20453;-51
2022/01/10 11:46:13;;;;;;;12.52;12.13;;;22.90;62.10;;;;;;5016648;28;20928;-53
2022/01/10 11:48:49;;;;;;;14.03;13.53;;;23.10;59.40;;;;;;5015260;28;20223;-54
2022/01/10 11:51:18;;;;;;;13.60;13.20;;;23.40;57.60;;;;;;5014760;28;21038;-58
2022/01/10 11:53:48;;;;;;;13.93;13.43;;;23.60;56.20;;;;;;5014733;28;20954;-57
2022/01/10 11:56:25;;;;;;;13.00;12.60;;;23.90;54.90;;;;;;5015478;28;20878;-53
2022/01/10 11:59:17;;;;;;;13.93;13.50;;;24.00;54.40;;;;;;5015232;28;20450;-56
2022/01/10 12:01:46;;;;;;;14.40;13.90;;;24.00;53.20;;;;;;5015151;28;20814;-55
2022/01/10 12:04:13;;;;;;;14.30;13.40;;;24.10;52.30;;;;;;5015111;28;20450;-58
2022/01/10 12:06:41;;;;;;;14.07;13.57;;;23.90;51.90;;;;;;5015258;28;20469;-57
2022/01/10 12:09:08;;;;;;;14.27;13.83;;;23.80;51.80;;;;;;5015375;28;20554;-55
2022/01/10 12:11:36;;;;;;;14.60;14.10;;;23.70;51.90;;;;;;5015226;28;20446;-58
2022/01/10 12:14:05;;;;;;;13.87;13.47;;;23.40;52.00;;;;;;5014064;28;20454;-54
2022/01/10 12:16:34;;;;;;;13.60;13.10;;;23.20;52.20;;;;;;5013634;28;20469;-54
2022/01/10 12:19:03;;;;;;;13.93;13.53;;;23.00;52.50;;;;;;5013827;28;20442;-53
2022/01/10 12:21:29;;;;;;;13.30;12.90;;;22.70;52.60;;;;;;5013674;28;20532;-54
2022/01/10 12:23:56;;;;;;;13.83;13.43;;;22.60;53.10;;;;;;5013330;28;20812;-54
2022/01/10 12:26:25;;;;;;;13.20;12.70;;;22.50;53.20;;;;;;5013745;28;20457;-54
2022/01/10 12:28:53;;;;;;;13.53;13.13;;;22.40;53.30;;;;;;5013628;28;20482;-51
2022/01/10 12:31:22;;;;;;;13.00;12.60;;;22.40;53.40;;;;;;5013565;28;20752;-54
2022/01/10 12:33:51;;;;;;;13.33;12.93;;;22.30;53.30;;;;;;5013404;28;20454;-57
2022/01/10 12:36:18;;;;;;;13.80;13.30;;;22.30;53.20;;;;;;5013378;28;20843;-53